Time;durP1;ratioP1;P1;durP2;ratioP2;P2;SDS_P1;SDS_P2;PMS_P1;PMS_P2;Temp;Humidity;BMP_temperature;BMP_pressure;BME280_temperature;BME280_humidity;BME280_pressure;Samples;Min_cycle;Max_cycle;Signal;HPM_P1;HPM_P2
2022/01/19 00:01:16;;;;;;;79.18;25.70;;;4.70;99.90;;;;;;5040215;28;20184;-65
2022/01/19 00:03:42;;;;;;;79.20;25.58;;;4.60;99.90;;;;;;5033907;28;20132;-65
2022/01/19 00:06:08;;;;;;;81.05;26.98;;;4.70;99.90;;;;;;5035219;28;20046;-66
2022/01/19 00:08:34;;;;;;;84.70;26.30;;;4.60;99.90;;;;;;5060500;28;20045;-65
2022/01/19 00:10:59;;;;;;;86.53;26.73;;;4.70;99.90;;;;;;5023610;28;20041;-66
2022/01/19 00:13:25;;;;;;;92.05;27.35;;;4.70;99.90;;;;;;5031187;28;20041;-66
2022/01/19 00:15:51;;;;;;;92.97;27.90;;;4.70;99.90;;;;;;5065810;28;20041;-67
2022/01/19 00:18:21;;;;;;;81.32;25.48;;;4.60;99.90;;;;;;5034791;28;20038;-67
2022/01/19 00:20:47;;;;;;;90.85;28.05;;;4.60;99.90;;;;;;5029807;28;20103;-67
2022/01/19 00:23:15;;;;;;;77.78;26.00;;;4.60;99.90;;;;;;5046143;28;20072;-65
2022/01/19 00:25:42;;;;;;;87.15;27.38;;;4.60;99.90;;;;;;5062345;28;20045;-66
2022/01/19 00:28:07;;;;;;;85.53;27.65;;;4.60;99.90;;;;;;5040156;28;20081;-66
2022/01/19 00:30:33;;;;;;;98.05;28.58;;;4.50;99.90;;;;;;5045543;28;20048;-67
2022/01/19 00:32:58;;;;;;;84.82;25.17;;;4.60;99.90;;;;;;5039673;28;20040;-65
2022/01/19 00:35:24;;;;;;;87.75;27.27;;;4.50;99.90;;;;;;5034015;28;20034;-67
2022/01/19 00:37:50;;;;;;;81.43;26.55;;;4.50;99.90;;;;;;5029780;28;20052;-65
2022/01/19 00:40:16;;;;;;;74.95;24.20;;;4.50;99.90;;;;;;5039801;28;20048;-65
2022/01/19 00:42:43;;;;;;;83.43;25.85;;;4.50;99.90;;;;;;5034602;28;20040;-65
2022/01/19 00:45:10;;;;;;;85.45;26.15;;;4.60;99.90;;;;;;5042914;28;20086;-65
2022/01/19 00:47:35;;;;;;;75.40;23.63;;;4.50;99.90;;;;;;5037887;28;20044;-65
2022/01/19 00:50:02;;;;;;;77.70;25.38;;;4.50;99.90;;;;;;5034204;28;20033;-65
2022/01/19 00:52:28;;;;;;;75.57;24.05;;;4.50;99.90;;;;;;5037830;28;20092;-65
2022/01/19 00:54:53;;;;;;;68.95;22.67;;;4.60;99.90;;;;;;5046565;28;20558;-65
2022/01/19 00:57:19;;;;;;;74.72;23.25;;;4.60;99.90;;;;;;5060765;28;20183;-65
2022/01/19 00:59:45;;;;;;;69.20;21.25;;;4.60;99.90;;;;;;5038695;28;20091;-65
2022/01/19 01:02:10;;;;;;;71.57;21.50;;;4.60;99.90;;;;;;5041217;28;20048;-66
2022/01/19 01:04:36;;;;;;;55.60;18.23;;;4.60;99.90;;;;;;5038837;28;20064;-65
2022/01/19 01:07:02;;;;;;;59.75;20.02;;;4.70;99.90;;;;;;5030201;28;20048;-65
2022/01/19 01:09:28;;;;;;;61.45;20.33;;;4.60;99.90;;;;;;5031997;28;20442;-65
2022/01/19 01:12:02;;;;;;;54.60;19.33;;;4.60;99.90;;;;;;5061652;28;20041;-65
2022/01/19 01:20:01;;;;;;;63.38;19.90;;;4.70;99.90;;;;;;5035932;28;20254;-64
2022/01/19 01:22:27;;;;;;;55.42;18.92;;;4.60;99.90;;;;;;5033441;28;20049;-65
2022/01/19 01:24:52;;;;;;;51.67;18.23;;;4.60;99.90;;;;;;5028541;28;20049;-64
2022/01/19 01:27:18;;;;;;;55.17;19.05;;;4.60;99.90;;;;;;5028649;28;20426;-66
2022/01/19 01:29:44;;;;;;;57.22;18.23;;;4.50;99.90;;;;;;5029302;28;20056;-66
2022/01/19 01:32:10;;;;;;;55.55;18.25;;;4.60;99.90;;;;;;5028769;28;20056;-66
2022/01/19 01:34:35;;;;;;;54.85;19.05;;;4.50;99.90;;;;;;5035004;28;20550;-65
2022/01/19 01:37:01;;;;;;;65.07;18.85;;;4.40;99.90;;;;;;5030976;28;20067;-65
2022/01/19 01:39:27;;;;;;;56.55;19.70;;;4.40;99.90;;;;;;5012672;28;20081;-65
2022/01/19 01:41:52;;;;;;;61.75;18.85;;;4.40;99.90;;;;;;5043591;28;20593;-66
2022/01/19 01:44:18;;;;;;;50.78;17.02;;;4.30;99.90;;;;;;5043482;28;20040;-66
2022/01/19 01:46:50;;;;;;;58.85;19.88;;;4.30;99.90;;;;;;5033893;28;20460;-66
2022/01/19 01:49:24;;;;;;;57.08;18.02;;;4.30;99.90;;;;;;5032270;28;20060;-66
2022/01/19 01:54:34;;;;;;;59.08;19.00;;;4.20;99.90;;;;;;5029313;28;20038;-65
2022/01/19 01:57:00;;;;;;;54.88;19.58;;;4.10;99.90;;;;;;5043309;28;20033;-66
2022/01/19 01:59:25;;;;;;;67.28;20.35;;;4.10;99.90;;;;;;5011357;28;20450;-66
2022/01/19 02:01:51;;;;;;;57.45;19.40;;;4.20;99.90;;;;;;5030308;28;20049;-66
2022/01/19 02:04:21;;;;;;;60.17;19.00;;;4.20;99.90;;;;;;5032797;28;20481;-66
2022/01/19 02:09:37;;;;;;;62.90;21.85;;;4.20;99.90;;;;;;5010888;28;20056;-66
2022/01/19 02:25:55;;;;;;;68.55;20.55;;;4.20;99.90;;;;;;5028203;28;20673;-66
2022/01/19 02:36:52;;;;;;;64.85;22.33;;;4.30;99.90;;;;;;5032143;28;20481;-67
2022/01/19 02:42:06;;;;;;;75.50;20.30;;;4.20;99.90;;;;;;5038006;28;20212;-66
2022/01/19 02:46:41;;;;;;;73.05;22.35;;;4.20;99.90;;;;;;5044684;28;20531;-66
2022/01/19 02:49:53;;;;;;;64.72;22.80;;;4.20;99.90;;;;;;5040548;28;20037;-66
2022/01/19 02:52:20;;;;;;;71.78;22.20;;;4.10;99.90;;;;;;5030553;28;20392;-65
2022/01/19 02:54:47;;;;;;;70.70;23.45;;;4.10;99.90;;;;;;5044712;28;20041;-65
2022/01/19 02:57:14;;;;;;;66.15;21.83;;;4.10;99.90;;;;;;5044328;28;20040;-65
2022/01/19 03:10:20;;;;;;;73.78;22.17;;;4.10;99.90;;;;;;5040069;28;20071;-65
2022/01/19 03:12:45;;;;;;;78.18;22.98;;;4.10;99.90;;;;;;5035431;28;20053;-66
2022/01/19 03:15:13;;;;;;;68.28;23.20;;;4.10;99.90;;;;;;5026534;28;20053;-65
2022/01/19 03:17:38;;;;;;;73.15;24.92;;;4.10;99.90;;;;;;5035720;28;20048;-67
2022/01/19 03:20:06;;;;;;;74.10;23.20;;;4.10;99.90;;;;;;5034153;28;20041;-65
2022/01/19 03:22:39;;;;;;;73.63;24.70;;;4.10;99.90;;;;;;5040321;28;20048;-66
2022/01/19 03:25:11;;;;;;;82.22;24.55;;;4.10;99.90;;;;;;5031512;28;20376;-65
2022/01/19 03:27:37;;;;;;;78.68;24.45;;;4.10;99.90;;;;;;5061199;28;20053;-66
2022/01/19 03:30:04;;;;;;;71.35;23.83;;;4.10;99.90;;;;;;5033676;28;20037;-67
2022/01/19 03:32:29;;;;;;;63.67;22.73;;;4.00;99.90;;;;;;5029373;28;20116;-66
2022/01/19 03:34:55;;;;;;;65.25;22.88;;;4.00;99.90;;;;;;5033337;28;20215;-66
2022/01/19 03:37:20;;;;;;;65.13;21.35;;;3.90;99.90;;;;;;5037294;28;20203;-66
2022/01/19 03:39:46;;;;;;;66.85;22.20;;;3.90;99.90;;;;;;5033133;28;20484;-68
2022/01/19 03:42:12;;;;;;;69.75;24.55;;;3.90;99.90;;;;;;5030746;28;20052;-65
2022/01/19 03:44:37;;;;;;;73.82;23.73;;;3.90;99.90;;;;;;5037135;28;20100;-68
2022/01/19 03:47:04;;;;;;;64.45;22.75;;;3.80;99.90;;;;;;5039370;28;20498;-66
2022/01/19 03:49:33;;;;;;;74.57;23.02;;;3.80;99.90;;;;;;5030270;28;20041;-67
2022/01/19 03:52:02;;;;;;;75.72;23.60;;;3.80;99.90;;;;;;5052332;28;20033;-66
2022/01/19 03:54:33;;;;;;;70.63;23.80;;;3.90;99.90;;;;;;5032474;28;20111;-65
2022/01/19 03:56:59;;;;;;;67.38;24.35;;;3.90;99.90;;;;;;5039547;28;20125;-65
2022/01/19 03:59:25;;;;;;;73.03;23.73;;;3.90;99.90;;;;;;5029367;28;20159;-67
2022/01/19 04:01:52;;;;;;;78.28;23.45;;;3.90;99.90;;;;;;5042060;28;20120;-67
2022/01/19 04:04:33;;;;;;;72.40;23.98;;;3.80;99.90;;;;;;5039895;28;20405;-67
2022/01/19 04:09:26;;;;;;;62.20;23.38;;;3.80;99.90;;;;;;5035424;28;20140;-65
2022/01/19 04:11:52;;;;;;;67.55;23.63;;;3.80;99.90;;;;;;5049546;28;20041;-67
2022/01/19 04:14:26;;;;;;;65.97;22.27;;;3.80;99.90;;;;;;5034429;28;20068;-66
2022/01/19 04:16:58;;;;;;;72.30;23.13;;;3.80;99.90;;;;;;5025310;28;20052;-66
2022/01/19 04:22:07;;;;;;;65.43;23.02;;;3.80;99.90;;;;;;5038530;28;20114;-66
2022/01/19 04:24:33;;;;;;;68.85;23.83;;;3.80;99.90;;;;;;5029426;28;20628;-66
2022/01/19 04:29:58;;;;;;;74.60;24.17;;;3.70;99.90;;;;;;5032355;28;20053;-66
2022/01/19 04:32:32;;;;;;;74.82;24.58;;;3.70;99.90;;;;;;5048870;28;20055;-67
2022/01/19 04:35:01;;;;;;;63.65;21.63;;;3.70;99.90;;;;;;5036880;28;20160;-67
2022/01/19 04:37:38;;;;;;;67.90;22.88;;;3.70;99.90;;;;;;5046406;28;20116;-67
2022/01/19 04:54:19;;;;;;;;;;;3.50;99.90;;;;;;5048132;28;20135;-65
2022/01/19 05:07:19;;;;;;;73.63;23.60;;;3.70;99.90;;;;;;5035081;28;19917;-65
2022/01/19 05:15:07;;;;;;;74.97;23.13;;;3.80;99.90;;;;;;5028424;28;20120;-68
2022/01/19 05:17:36;;;;;;;65.13;22.80;;;3.80;99.90;;;;;;5061784;28;20130;-66
2022/01/19 05:20:03;;;;;;;68.22;23.30;;;3.80;99.90;;;;;;5065338;28;20091;-66
2022/01/19 05:22:29;;;;;;;62.17;22.23;;;3.70;99.90;;;;;;5047576;28;20029;-66
2022/01/19 05:24:54;;;;;;;62.35;23.80;;;3.70;99.90;;;;;;5034723;28;20063;-66
2022/01/19 05:27:21;;;;;;;63.30;23.58;;;3.80;99.90;;;;;;5027626;28;20045;-66
2022/01/19 05:29:47;;;;;;;66.22;23.77;;;3.80;99.90;;;;;;5030105;28;20045;-65
2022/01/19 05:32:13;;;;;;;65.32;24.45;;;3.80;99.90;;;;;;5028204;28;20048;-65
2022/01/19 05:34:39;;;;;;;67.03;23.27;;;3.80;99.90;;;;;;5032387;28;20105;-65
2022/01/19 05:37:04;;;;;;;67.35;24.40;;;3.80;99.90;;;;;;5045436;28;20041;-66
2022/01/19 05:39:30;;;;;;;70.15;24.83;;;3.80;99.90;;;;;;5046803;28;20039;-66
2022/01/19 05:41:55;;;;;;;77.72;25.85;;;3.80;99.90;;;;;;5031367;28;20060;-66
2022/01/19 05:44:21;;;;;;;71.28;25.05;;;3.90;99.90;;;;;;5031369;28;20044;-65
2022/01/19 05:46:46;;;;;;;75.07;27.33;;;3.90;99.90;;;;;;5047012;28;20036;-66
2022/01/19 05:49:13;;;;;;;78.22;27.55;;;3.90;99.90;;;;;;5031914;28;20045;-65
2022/01/19 05:51:38;;;;;;;80.85;27.85;;;3.90;99.90;;;;;;5023550;28;20152;-66
2022/01/19 05:54:04;;;;;;;76.57;27.30;;;3.90;99.90;;;;;;5031947;28;20124;-65
2022/01/19 05:56:30;;;;;;;82.45;29.55;;;3.90;99.90;;;;;;5035319;28;20097;-65
2022/01/19 05:58:56;;;;;;;81.72;29.65;;;3.90;99.90;;;;;;5027406;28;20037;-66
2022/01/19 06:01:21;;;;;;;69.82;28.10;;;3.90;99.90;;;;;;5033927;28;20041;-65
2022/01/19 06:03:47;;;;;;;81.22;27.50;;;4.00;99.90;;;;;;5010836;28;20041;-65
2022/01/19 06:06:13;;;;;;;77.18;27.30;;;3.90;99.90;;;;;;5032522;28;20571;-66
2022/01/19 06:08:45;;;;;;;73.60;29.02;;;4.00;99.90;;;;;;5036145;28;20036;-66
2022/01/19 06:11:11;;;;;;;78.82;28.70;;;4.00;99.90;;;;;;5037158;28;20489;-66
2022/01/19 06:13:38;;;;;;;72.53;27.30;;;4.00;99.90;;;;;;5027555;28;20134;-66
2022/01/19 06:16:04;;;;;;;70.90;26.90;;;4.00;99.90;;;;;;5034615;28;20600;-65
2022/01/19 06:18:30;;;;;;;68.93;27.30;;;4.00;99.90;;;;;;5037769;28;20373;-66
2022/01/19 06:20:56;;;;;;;70.57;26.55;;;4.00;99.90;;;;;;5031117;28;20041;-67
2022/01/19 06:23:22;;;;;;;71.10;27.40;;;4.00;99.90;;;;;;5043403;28;20041;-65
2022/01/19 06:25:48;;;;;;;64.38;27.75;;;4.00;99.90;;;;;;5029313;28;20046;-65
2022/01/19 06:28:13;;;;;;;73.45;26.85;;;4.00;99.90;;;;;;5055674;28;20116;-66
2022/01/19 06:30:39;;;;;;;70.32;27.92;;;4.00;99.90;;;;;;5047324;28;20652;-66
2022/01/19 06:33:05;;;;;;;75.18;27.25;;;4.00;99.90;;;;;;5029858;28;20377;-66
2022/01/19 06:35:31;;;;;;;70.03;26.50;;;4.00;99.90;;;;;;5035811;28;20039;-66
2022/01/19 06:37:57;;;;;;;68.18;26.77;;;4.00;99.90;;;;;;5034059;28;20116;-66
2022/01/19 06:40:25;;;;;;;72.10;26.88;;;4.00;99.90;;;;;;5041210;28;20092;-66
2022/01/19 06:42:53;;;;;;;63.25;26.23;;;4.00;99.90;;;;;;5036971;28;20052;-67
2022/01/19 06:45:19;;;;;;;64.57;27.38;;;4.00;99.90;;;;;;5037944;28;20037;-67
2022/01/19 06:47:45;;;;;;;65.85;25.13;;;4.00;99.90;;;;;;5032740;28;20053;-66
2022/01/19 06:50:12;;;;;;;73.22;28.75;;;4.00;99.90;;;;;;5034843;28;20107;-66
2022/01/19 06:52:39;;;;;;;69.57;25.80;;;4.00;99.90;;;;;;5026097;28;20084;-67
2022/01/19 06:55:06;;;;;;;70.00;25.88;;;4.00;99.90;;;;;;5037210;28;20037;-67
2022/01/19 06:57:32;;;;;;;74.88;26.33;;;4.00;99.90;;;;;;5046793;28;20446;-65
2022/01/19 06:59:57;;;;;;;65.70;25.45;;;4.00;99.90;;;;;;5039212;28;20116;-66
2022/01/19 07:02:23;;;;;;;59.90;25.65;;;4.00;99.90;;;;;;5031125;28;20045;-66
2022/01/19 07:04:49;;;;;;;65.30;24.30;;;3.90;99.90;;;;;;5026133;28;20068;-67
2022/01/19 07:07:19;;;;;;;70.05;25.42;;;3.90;99.90;;;;;;5036887;28;20049;-67
2022/01/19 07:09:45;;;;;;;64.93;24.38;;;3.90;99.90;;;;;;5048923;28;20037;-66
2022/01/19 07:12:12;;;;;;;62.40;23.45;;;3.90;99.90;;;;;;5047330;28;20041;-66
2022/01/19 07:14:37;;;;;;;54.90;22.42;;;3.90;99.90;;;;;;5030055;28;20072;-67
2022/01/19 07:17:03;;;;;;;61.90;24.27;;;3.90;99.90;;;;;;5037452;28;20037;-65
2022/01/19 07:19:29;;;;;;;60.50;23.95;;;3.90;99.90;;;;;;5031851;28;20144;-66
2022/01/19 07:21:55;;;;;;;55.72;22.23;;;3.90;99.90;;;;;;5039884;28;20046;-66
2022/01/19 07:24:21;;;;;;;62.28;24.38;;;3.90;99.90;;;;;;5036713;28;20095;-65
2022/01/19 07:26:46;;;;;;;53.72;22.45;;;3.90;99.90;;;;;;5043108;28;20040;-66
2022/01/19 07:29:14;;;;;;;54.17;21.83;;;3.90;99.90;;;;;;5041716;28;20163;-66
2022/01/19 07:31:40;;;;;;;54.03;22.55;;;3.80;99.90;;;;;;5018331;28;20085;-66
2022/01/19 07:34:06;;;;;;;54.22;23.35;;;3.90;99.90;;;;;;5028175;28;20041;-66
2022/01/19 07:36:32;;;;;;;50.55;21.10;;;3.80;99.90;;;;;;5048876;28;20098;-65
2022/01/19 07:38:58;;;;;;;49.90;21.67;;;3.80;99.90;;;;;;5039286;28;20102;-67
2022/01/19 07:41:23;;;;;;;46.42;19.65;;;3.70;99.90;;;;;;5034659;28;20469;-65
2022/01/19 07:43:49;;;;;;;44.58;21.48;;;3.80;99.90;;;;;;5034382;28;20650;-67
2022/01/19 07:46:16;;;;;;;55.38;20.65;;;3.70;99.90;;;;;;5036116;28;20037;-66
2022/01/19 07:48:41;;;;;;;48.70;21.10;;;3.70;99.90;;;;;;5041219;28;20083;-66
2022/01/19 07:51:07;;;;;;;48.22;22.15;;;3.70;99.90;;;;;;5032000;28;20076;-65
2022/01/19 07:53:33;;;;;;;53.42;21.63;;;3.70;99.90;;;;;;5046077;28;20923;-66
2022/01/19 07:55:58;;;;;;;54.75;21.50;;;3.70;99.90;;;;;;5049834;28;20051;-65
2022/01/19 07:58:24;;;;;;;45.25;21.65;;;3.70;99.90;;;;;;5045845;28;20361;-65
2022/01/19 08:00:49;;;;;;;52.42;21.83;;;3.70;99.90;;;;;;5021946;28;20445;-67
2022/01/19 08:03:15;;;;;;;50.33;21.50;;;3.60;99.90;;;;;;5027156;28;20052;-67
2022/01/19 08:05:41;;;;;;;53.28;22.77;;;3.60;99.90;;;;;;5037056;28;20033;-67
2022/01/19 08:08:06;;;;;;;47.15;22.00;;;3.60;99.90;;;;;;5042406;28;20037;-65
2022/01/19 08:10:32;;;;;;;51.95;22.23;;;3.60;99.90;;;;;;5040165;28;20033;-67
2022/01/19 08:13:02;;;;;;;54.58;23.10;;;3.50;99.90;;;;;;5035716;28;20119;-66
2022/01/19 08:15:29;;;;;;;47.75;22.15;;;3.60;99.90;;;;;;5033938;28;20049;-66
2022/01/19 08:17:55;;;;;;;48.45;22.75;;;3.60;99.90;;;;;;5036016;28;20035;-66
2022/01/19 08:20:20;;;;;;;47.60;21.70;;;3.40;99.90;;;;;;5027546;28;20465;-65
2022/01/19 08:22:46;;;;;;;50.88;22.05;;;3.50;99.90;;;;;;5031910;28;20057;-65
2022/01/19 08:25:12;;;;;;;48.88;21.20;;;3.50;99.90;;;;;;5039340;28;20041;-66
2022/01/19 08:27:37;;;;;;;53.13;22.80;;;3.50;99.90;;;;;;5028910;28;20160;-66
2022/01/19 08:30:06;;;;;;;48.22;20.88;;;3.50;99.90;;;;;;5031425;28;20610;-67
2022/01/19 08:32:34;;;;;;;50.45;22.70;;;3.50;99.90;;;;;;5013834;28;20041;-65
2022/01/19 08:34:59;;;;;;;48.13;21.80;;;3.50;99.90;;;;;;5030638;28;20485;-64
2022/01/19 08:37:25;;;;;;;52.80;23.75;;;3.50;99.90;;;;;;5034496;28;20044;-67
2022/01/19 08:39:52;;;;;;;48.42;22.85;;;3.50;99.90;;;;;;5031321;28;20132;-65
2022/01/19 08:42:18;;;;;;;47.85;21.65;;;3.40;99.90;;;;;;5050074;28;20560;-66
2022/01/19 08:44:44;;;;;;;51.50;21.95;;;3.40;99.90;;;;;;5042416;28;20052;-67
2022/01/19 08:47:09;;;;;;;52.53;24.17;;;3.40;99.90;;;;;;5036888;28;20103;-67
2022/01/19 08:49:35;;;;;;;51.90;21.83;;;3.40;99.90;;;;;;5030076;28;20045;-66
2022/01/19 08:52:02;;;;;;;55.05;24.35;;;3.40;99.90;;;;;;5034965;28;20454;-65
2022/01/19 08:54:28;;;;;;;51.63;23.70;;;3.40;99.90;;;;;;5037801;28;20037;-67
2022/01/19 08:56:54;;;;;;;53.03;23.13;;;3.50;99.90;;;;;;5035241;28;20040;-67
2022/01/19 08:59:20;;;;;;;50.75;23.30;;;3.40;99.90;;;;;;5028292;28;20049;-65
2022/01/19 09:01:46;;;;;;;55.20;23.23;;;3.50;99.90;;;;;;5033786;28;20041;-66
2022/01/19 09:04:11;;;;;;;48.78;23.63;;;3.50;99.90;;;;;;5044901;28;20063;-67
2022/01/19 09:06:37;;;;;;;51.17;23.02;;;3.60;99.90;;;;;;5044728;28;20046;-65
2022/01/19 09:09:02;;;;;;;54.10;25.70;;;3.60;99.90;;;;;;5059115;28;20078;-66
2022/01/19 09:11:28;;;;;;;51.20;22.35;;;3.60;99.90;;;;;;5036342;28;20052;-64
2022/01/19 09:13:53;;;;;;;47.25;22.90;;;3.60;99.90;;;;;;5028159;28;20060;-65
2022/01/19 09:16:19;;;;;;;51.10;22.20;;;3.70;99.90;;;;;;5037815;28;20039;-65
2022/01/19 09:18:45;;;;;;;52.53;22.60;;;3.60;99.90;;;;;;5031780;28;20032;-65
2022/01/19 09:21:10;;;;;;;50.13;22.73;;;3.70;99.90;;;;;;5045306;28;20077;-65
2022/01/19 09:23:37;;;;;;;52.17;23.60;;;3.80;99.90;;;;;;5027973;28;20052;-65
2022/01/19 09:26:03;;;;;;;55.58;24.35;;;3.70;99.90;;;;;;5033346;28;20118;-65
2022/01/19 09:28:30;;;;;;;57.35;24.10;;;3.70;99.90;;;;;;5031532;28;20117;-66
2022/01/19 09:30:59;;;;;;;56.08;24.08;;;3.70;99.90;;;;;;5039908;28;20060;-64
2022/01/19 09:33:28;;;;;;;53.80;25.65;;;3.80;99.90;;;;;;5032785;28;20061;-66
2022/01/19 09:38:25;;;;;;;57.90;25.92;;;3.80;99.90;;;;;;5035286;28;20351;-67
2022/01/19 09:40:52;;;;;;;57.30;27.23;;;3.80;99.90;;;;;;5037418;28;20148;-64
2022/01/19 09:43:21;;;;;;;54.30;24.98;;;3.90;99.90;;;;;;5041251;28;20029;-66
2022/01/19 09:45:48;;;;;;;58.70;26.85;;;3.90;99.90;;;;;;5029157;28;20038;-65
2022/01/19 09:48:14;;;;;;;58.28;27.10;;;3.90;99.90;;;;;;5044147;28;20056;-65
2022/01/19 09:50:39;;;;;;;62.75;26.58;;;3.90;99.90;;;;;;5028386;28;20041;-66
2022/01/19 09:53:06;;;;;;;63.35;28.90;;;3.90;99.90;;;;;;5040915;28;20133;-66
2022/01/19 09:55:32;;;;;;;60.08;27.60;;;3.90;99.90;;;;;;5048452;28;20043;-67
2022/01/19 09:57:58;;;;;;;60.05;28.05;;;4.00;99.90;;;;;;5029264;28;20381;-65
2022/01/19 10:00:24;;;;;;;60.85;27.20;;;4.00;99.90;;;;;;5028564;28;20102;-67
2022/01/19 10:03:21;;;;;;;63.22;28.38;;;4.00;99.90;;;;;;5028066;28;20389;-66
2022/01/19 10:06:10;;;;;;;55.88;25.25;;;3.90;99.90;;;;;;5027315;28;20048;-66
2022/01/19 10:08:41;;;;;;;58.75;26.75;;;4.00;99.90;;;;;;5027510;28;20099;-65
2022/01/19 10:11:13;;;;;;;60.95;27.90;;;4.00;99.90;;;;;;5046238;28;20381;-66
2022/01/19 10:17:06;;;;;;;63.40;28.77;;;4.00;99.90;;;;;;5041666;28;20112;-67
2022/01/19 10:19:42;;;;;;;60.50;28.20;;;4.00;99.90;;;;;;5032390;28;20129;-67
2022/01/19 10:22:14;;;;;;;62.42;26.95;;;4.00;99.90;;;;;;5041267;28;20461;-68
2022/01/19 10:25:04;;;;;;;58.85;27.70;;;4.00;99.90;;;;;;5044305;28;20043;-66
2022/01/19 10:27:39;;;;;;;63.65;28.02;;;4.10;99.90;;;;;;5038143;28;20882;-68
2022/01/19 10:30:04;;;;;;;59.22;27.40;;;4.10;99.90;;;;;;5042714;28;20365;-67
2022/01/19 10:32:36;;;;;;;60.15;29.35;;;4.20;99.90;;;;;;5045016;28;20052;-67
2022/01/19 10:35:30;;;;;;;64.65;29.27;;;4.20;99.90;;;;;;5041453;28;20052;-68
2022/01/19 10:38:12;;;;;;;58.97;27.85;;;4.20;99.90;;;;;;5024859;28;20055;-66
2022/01/19 10:40:40;;;;;;;65.07;28.13;;;4.10;99.90;;;;;;5015862;28;20034;-66
2022/01/19 10:43:26;;;;;;;59.10;28.60;;;4.20;99.90;;;;;;5039519;28;20080;-66
2022/01/19 10:45:52;;;;;;;60.00;27.48;;;4.20;99.90;;;;;;5047811;28;20096;-66
2022/01/19 10:48:38;;;;;;;56.85;27.92;;;4.20;99.90;;;;;;5043401;28;20072;-67
2022/01/19 10:51:10;;;;;;;65.53;29.08;;;4.30;99.90;;;;;;5046430;28;20415;-66
2022/01/19 10:53:35;;;;;;;67.80;28.48;;;4.30;99.90;;;;;;5044871;28;20464;-67
2022/01/19 10:56:05;;;;;;;73.30;29.98;;;4.20;99.90;;;;;;5047964;28;20045;-67
2022/01/19 10:58:33;;;;;;;61.50;28.85;;;4.30;99.90;;;;;;5045085;28;20072;-68
2022/01/19 11:00:58;;;;;;;63.00;28.88;;;4.40;99.90;;;;;;5040184;28;20120;-66
2022/01/19 11:03:28;;;;;;;64.75;29.10;;;4.40;99.90;;;;;;5028941;28;20129;-68
2022/01/19 11:05:58;;;;;;;68.32;30.45;;;4.50;99.90;;;;;;5020849;28;20041;-68
2022/01/19 11:08:25;;;;;;;;;;;4.40;99.90;;;;;;5027013;28;20045;-67
2022/01/19 11:10:54;;;;;;;68.68;29.02;;;4.50;99.90;;;;;;5029175;28;20273;-66
2022/01/19 11:13:39;;;;;;;61.47;28.83;;;4.50;99.90;;;;;;5037054;28;20064;-66
2022/01/19 11:16:05;;;;;;;66.38;29.55;;;4.50;99.90;;;;;;5024791;28;20469;-66
2022/01/19 11:18:35;;;;;;;67.85;31.05;;;4.60;99.90;;;;;;5027062;28;20042;-67
2022/01/19 11:21:04;;;;;;;65.93;30.13;;;4.50;99.90;;;;;;5029996;28;20091;-67
2022/01/19 11:23:36;;;;;;;79.15;32.38;;;4.50;99.90;;;;;;5034390;28;20033;-67
2022/01/19 11:26:16;;;;;;;70.00;30.67;;;4.50;99.90;;;;;;5021173;28;20400;-67
2022/01/19 11:28:46;;;;;;;74.82;33.72;;;4.40;99.90;;;;;;5033964;28;20037;-67
2022/01/19 11:31:37;;;;;;;80.90;34.13;;;4.40;99.90;;;;;;5027344;28;20100;-67
2022/01/19 11:34:03;;;;;;;80.40;33.28;;;4.30;99.90;;;;;;5015303;28;20045;-67
2022/01/19 11:36:35;;;;;;;79.32;33.42;;;4.30;99.90;;;;;;5044664;28;20037;-67
2022/01/19 11:39:21;;;;;;;74.65;31.60;;;4.40;99.90;;;;;;5029844;28;20040;-67
2022/01/19 11:41:47;;;;;;;83.18;34.47;;;4.40;99.90;;;;;;5044605;28;20097;-68
2022/01/19 11:44:17;;;;;;;78.00;35.88;;;4.40;99.90;;;;;;5039771;28;20087;-67
2022/01/19 11:46:49;;;;;;;80.78;33.92;;;4.40;99.90;;;;;;5038920;28;20087;-68
2022/01/19 11:49:19;;;;;;;80.32;34.45;;;4.50;99.90;;;;;;5030567;28;20045;-68
2022/01/19 11:51:55;;;;;;;83.93;34.45;;;4.50;99.90;;;;;;5041404;28;20174;-66
2022/01/19 11:54:29;;;;;;;83.38;34.30;;;4.50;99.90;;;;;;5035217;28;20134;-66
2022/01/19 11:57:04;;;;;;;86.28;34.78;;;4.50;99.90;;;;;;5046574;28;20064;-67
2022/01/19 11:59:34;;;;;;;83.40;33.22;;;4.50;99.90;;;;;;5032171;28;20037;-67
2022/01/19 12:02:24;;;;;;;83.47;35.85;;;4.50;99.90;;;;;;5028624;28;20041;-67
2022/01/19 12:04:54;;;;;;;;;;;4.50;99.90;;;;;;5029442;28;20124;-67
2022/01/19 12:07:35;;;;;;;85.22;34.92;;;4.60;99.90;;;;;;5021220;28;20011;-67
2022/01/19 12:10:01;;;;;;;84.82;35.92;;;4.50;99.90;;;;;;5013297;28;20103;-68
2022/01/19 12:12:32;;;;;;;89.53;35.42;;;4.60;99.90;;;;;;5029460;28;20792;-67
2022/01/19 12:14:57;;;;;;;82.85;34.05;;;4.60;99.90;;;;;;5014820;28;20045;-66
2022/01/19 12:17:43;;;;;;;89.78;35.67;;;4.70;99.90;;;;;;5034138;28;20103;-68
2022/01/19 12:20:09;;;;;;;83.78;35.78;;;4.70;99.90;;;;;;5035430;28;20112;-67
2022/01/19 12:22:35;;;;;;;91.72;35.67;;;4.80;99.90;;;;;;5029357;28;20133;-68
2022/01/19 12:25:11;;;;;;;95.45;36.60;;;4.80;99.90;;;;;;5029723;28;20243;-69
2022/01/19 12:27:39;;;;;;;101.70;37.88;;;4.80;99.90;;;;;;5033316;28;20040;-68
2022/01/19 12:30:05;;;;;;;89.43;36.75;;;4.80;99.90;;;;;;5037362;28;20147;-68
2022/01/19 12:32:36;;;;;;;89.80;36.78;;;4.80;99.90;;;;;;5049523;28;20123;-67
2022/01/19 12:35:11;;;;;;;87.40;35.85;;;4.80;99.90;;;;;;5043915;28;20384;-67
2022/01/19 12:37:37;;;;;;;87.15;35.88;;;4.80;99.90;;;;;;5048621;28;20091;-67
2022/01/19 12:40:04;;;;;;;94.18;36.70;;;4.80;99.90;;;;;;5050894;28;20405;-69
2022/01/19 12:42:50;;;;;;;91.47;36.40;;;4.80;99.90;;;;;;5049791;28;20076;-68
2022/01/19 12:45:30;;;;;;;90.03;35.97;;;4.80;99.90;;;;;;5042879;28;20034;-67
2022/01/19 12:48:01;;;;;;;98.87;37.70;;;4.70;99.90;;;;;;5037201;28;20698;-68
2022/01/19 12:50:29;;;;;;;90.63;35.10;;;4.70;99.90;;;;;;5011915;28;20292;-66
2022/01/19 12:52:58;;;;;;;87.93;36.78;;;4.70;99.90;;;;;;5046104;28;20099;-67
2022/01/19 12:55:32;;;;;;;99.78;37.60;;;4.70;99.90;;;;;;5048603;28;20041;-68
2022/01/19 12:57:58;;;;;;;92.45;35.72;;;4.60;99.90;;;;;;5029325;28;20570;-67
2022/01/19 13:00:29;;;;;;;101.50;37.25;;;4.60;99.90;;;;;;5044365;28;20037;-64
2022/01/19 13:02:57;;;;;;;98.20;37.90;;;4.60;99.90;;;;;;5047906;28;20199;-68
2022/01/19 13:05:24;;;;;;;99.63;38.42;;;4.60;99.90;;;;;;5058589;28;20694;-68
2022/01/19 13:07:55;;;;;;;96.40;36.50;;;4.60;99.90;;;;;;5049739;28;20049;-69
2022/01/19 13:10:27;;;;;;;99.05;37.28;;;4.60;99.90;;;;;;5048305;28;20068;-68
2022/01/19 13:15:44;;;;;;;99.70;38.78;;;4.70;99.90;;;;;;5028451;28;20371;-68
2022/01/19 13:18:11;;;;;;;97.43;38.80;;;4.70;99.90;;;;;;5028131;28;20057;-66
2022/01/19 13:20:48;;;;;;;90.93;36.67;;;4.70;99.90;;;;;;5047195;28;20071;-67
2022/01/19 13:23:13;;;;;;;97.15;37.30;;;4.70;99.90;;;;;;5047501;28;20133;-68
2022/01/19 13:25:39;;;;;;;98.68;36.95;;;4.70;99.90;;;;;;5049850;28;20049;-66
2022/01/19 13:28:04;;;;;;;93.72;35.28;;;4.70;99.90;;;;;;5048162;28;20105;-67
2022/01/19 13:30:35;;;;;;;93.05;36.05;;;4.80;99.90;;;;;;5038715;28;20083;-68
2022/01/19 13:33:12;;;;;;;92.03;36.75;;;4.80;99.90;;;;;;5036448;28;20056;-67
2022/01/19 13:35:38;;;;;;;90.18;35.28;;;4.80;99.90;;;;;;5016357;28;20053;-66
2022/01/19 13:38:12;;;;;;;88.80;35.10;;;4.90;99.90;;;;;;5032498;28;20366;-68
2022/01/19 13:40:37;;;;;;;85.53;33.28;;;5.00;99.90;;;;;;5029014;28;20037;-67
2022/01/19 13:43:05;;;;;;;87.20;34.70;;;5.00;99.90;;;;;;5027989;28;20087;-69
2022/01/19 13:50:43;;;;;;;80.93;31.83;;;5.10;99.90;;;;;;5044601;28;20184;-66
2022/01/19 13:53:09;;;;;;;;;;;5.10;99.90;;;;;;5046650;28;20041;-67
2022/01/19 13:55:38;;;;;;;73.32;28.58;;;5.10;99.90;;;;;;5028203;28;19987;-66
2022/01/19 13:58:09;;;;;;;71.78;28.90;;;5.20;99.90;;;;;;5026512;28;20099;-66
2022/01/19 14:00:37;;;;;;;78.85;30.48;;;5.20;99.90;;;;;;5027455;28;20057;-67
2022/01/19 14:03:04;;;;;;;69.80;28.75;;;5.20;99.90;;;;;;5028169;28;20540;-67
2022/01/19 14:05:48;;;;;;;68.82;28.98;;;5.20;99.90;;;;;;5028007;28;20057;-66
2022/01/19 14:08:14;;;;;;;67.53;29.58;;;5.20;99.90;;;;;;5035813;28;20051;-66
2022/01/19 14:10:48;;;;;;;64.22;28.10;;;5.20;99.90;;;;;;5043298;28;20045;-67
2022/01/19 14:13:29;;;;;;;66.75;29.05;;;5.20;99.90;;;;;;5027279;28;20053;-66
2022/01/19 14:15:56;;;;;;;66.88;27.55;;;5.20;99.90;;;;;;5030953;28;20048;-66
2022/01/19 14:18:22;;;;;;;68.55;28.23;;;5.20;99.90;;;;;;5041292;28;20167;-67
2022/01/19 14:21:07;;;;;;;66.80;29.00;;;5.20;99.90;;;;;;5044448;28;20486;-65
2022/01/19 14:23:34;;;;;;;70.78;26.40;;;5.10;99.90;;;;;;5042971;28;20087;-66
2022/01/19 14:26:11;;;;;;;68.07;28.45;;;5.00;99.90;;;;;;5040565;28;21044;-67